Time;durP1;ratioP1;P1;durP2;ratioP2;P2;SDS_P1;SDS_P2;PMS_P1;PMS_P2;Temp;Humidity;BMP_temperature;BMP_pressure;BME280_temperature;BME280_humidity;BME280_pressure;Samples;Min_cycle;Max_cycle;Signal;HPM_P1;HPM_P2
2022/05/09 00:00:43;;;;;;;20.05;11.78;;;;;;;8.52;85.29;101699.55;3702559;79;98599;-84
2022/05/09 00:05:47;;;;;;;20.97;12.15;;;;;;;8.56;86.31;101726.53;3706403;79;98789;-84
2022/05/09 00:10:48;;;;;;;22.27;12.93;;;;;;;8.53;86.72;101727.77;3702303;79;98770;-84
2022/05/09 00:15:52;;;;;;;22.58;12.78;;;;;;;8.48;85.64;101737.56;3656711;79;98906;-83
2022/05/09 00:20:54;;;;;;;21.42;11.88;;;;;;;8.41;87.56;101735.33;3707623;78;98733;-84
2022/05/09 00:25:57;;;;;;;22.27;12.82;;;;;;;8.36;86.85;101732.80;3712149;79;98362;-85
2022/05/09 00:30:59;;;;;;;20.12;12.18;;;;;;;8.24;89.12;101728.56;3709229;78;98969;-85
2022/05/09 00:36:00;;;;;;;21.35;11.43;;;;;;;8.22;88.90;101737.69;3682740;79;34868;-84
2022/05/09 00:46:23;;;;;;;22.77;11.53;;;;;;;8.11;89.04;101751.50;3703259;79;98689;-84
2022/05/09 00:51:27;;;;;;;22.62;12.13;;;;;;;8.07;89.15;101747.02;3702722;78;99301;-85
2022/05/09 00:56:46;;;;;;;21.60;11.68;;;;;;;8.00;89.30;101763.14;3703349;78;98775;-86
2022/05/09 01:01:48;;;;;;;19.73;11.38;;;;;;;7.95;88.96;101752.34;3698751;78;98697;-85
2022/05/09 01:06:50;;;;;;;19.65;10.88;;;;;;;7.87;90.61;101760.05;3636828;78;98940;-84
2022/05/09 01:11:53;;;;;;;22.20;10.82;;;;;;;7.81;90.14;101758.03;3676767;79;98524;-85
2022/05/09 01:16:55;;;;;;;18.50;10.75;;;;;;;7.75;90.59;101761.29;3682157;78;98680;-84
2022/05/09 01:21:59;;;;;;;18.98;10.00;;;;;;;7.69;90.24;101765.34;3614152;79;98980;-86
2022/05/09 01:27:00;;;;;;;18.05;10.58;;;;;;;7.64;89.62;101758.66;3674172;79;99298;-84
2022/05/09 01:32:03;;;;;;;18.70;9.35;;;;;;;7.59;90.23;101756.08;3649835;79;99356;-85
2022/05/09 01:37:07;;;;;;;18.40;9.13;;;;;;;7.53;90.68;101757.38;3660588;79;98469;-85
2022/05/09 01:42:12;;;;;;;18.55;8.68;;;;;;;7.47;90.29;101760.83;3625159;79;98784;-84
2022/05/09 01:52:36;;;;;;;20.70;9.65;;;;;;;7.33;90.73;101767.61;3715279;78;98459;-85
2022/05/09 01:57:36;;;;;;;22.35;10.05;;;;;;;7.26;90.56;101768.67;3704232;78;99059;-84
2022/05/09 02:02:39;;;;;;;16.50;8.47;;;;;;;7.22;90.50;101771.80;3676331;79;98782;-85
2022/05/09 02:07:40;;;;;;;18.65;9.20;;;;;;;7.15;90.34;101770.13;3634115;79;98760;-85
2022/05/09 02:12:44;;;;;;;16.30;8.10;;;;;;;7.08;89.96;101766.48;3689254;79;98639;-85
2022/05/09 02:17:47;;;;;;;16.45;9.55;;;;;;;7.04;89.63;101772.35;3716444;78;98322;-85
2022/05/09 02:22:48;;;;;;;17.57;8.48;;;;;;;6.99;90.37;101777.19;3639203;79;98538;-85
2022/05/09 02:27:49;;;;;;;15.40;7.37;;;;;;;6.93;89.84;101775.16;3659330;78;98541;-85
2022/05/09 02:32:52;;;;;;;15.80;7.40;;;;;;;6.90;89.44;101789.50;3646095;79;98732;-86
2022/05/09 02:37:53;;;;;;;14.43;6.87;;;;;;;6.84;89.51;101789.95;3694977;79;98965;-85
2022/05/09 02:42:57;;;;;;;15.73;7.70;;;;;;;6.79;88.66;101797.77;3604242;81;98660;-84
2022/05/09 02:47:59;;;;;;;15.38;6.47;;;;;;;6.73;89.34;101788.64;3765500;78;35055;-85
2022/05/09 02:53:01;;;;;;;14.05;6.75;;;;;;;6.68;89.01;101799.73;3709121;78;98591;-85
2022/05/09 02:58:03;;;;;;;14.57;6.70;;;;;;;6.62;89.27;101793.62;3731957;78;99183;-84
2022/05/09 03:08:24;;;;;;;13.48;6.10;;;;;;;6.53;88.23;101795.51;3747603;78;99094;-85
2022/05/09 03:13:25;;;;;;;14.70;6.42;;;;;;;6.46;88.48;101793.80;3678911;78;98362;-83
2022/05/09 03:18:27;;;;;;;15.10;6.90;;;;;;;6.41;88.68;101801.33;3731590;78;26347;-85
2022/05/09 03:23:28;;;;;;;12.07;5.47;;;;;;;6.32;89.83;101808.12;3739863;78;98699;-85
2022/05/09 03:28:30;;;;;;;13.30;5.77;;;;;;;6.28;89.02;101814.55;3735101;78;98419;-86
2022/05/09 03:33:31;;;;;;;12.13;6.50;;;;;;;6.25;88.42;101809.70;3726084;78;98928;-85
2022/05/09 03:38:33;;;;;;;15.53;6.83;;;;;;;6.21;89.21;101806.79;3783985;78;98978;-85
2022/05/09 03:43:34;;;;;;;11.27;5.00;;;;;;;6.15;89.26;101816.25;3751818;77;99219;-85
2022/05/09 03:48:35;;;;;;;12.27;5.30;;;;;;;6.13;89.76;101813.58;3781144;77;26208;-84
2022/05/09 03:53:36;;;;;;;11.37;5.67;;;;;;;6.10;90.22;101823.22;3769494;78;98868;-85
2022/05/09 03:58:38;;;;;;;12.20;5.60;;;;;;;6.11;89.41;101826.77;3745833;77;98529;-85
2022/05/09 04:03:42;;;;;;;11.55;5.37;;;;;;;6.11;89.51;101832.23;3758167;78;98663;-85
2022/05/09 04:08:43;;;;;;;16.30;4.75;;;;;;;6.11;89.38;101834.39;3779162;77;98673;-85
2022/05/09 04:13:44;;;;;;;12.83;5.10;;;;;;;6.13;90.07;101840.92;3751686;77;98640;-85
2022/05/09 04:18:45;;;;;;;10.43;4.87;;;;;;;6.14;89.94;101837.88;3784266;77;25764;-84
2022/05/09 04:23:48;;;;;;;12.77;4.80;;;;;;;6.18;89.68;101842.16;3767412;77;98711;-83
2022/05/09 04:28:51;;;;;;;12.37;4.80;;;;;;;6.21;89.82;101852.48;3782405;78;98475;-84
2022/05/09 04:33:54;;;;;;;9.33;4.03;;;;;;;6.27;89.45;101855.32;3743362;78;98988;-84
2022/05/09 04:38:57;;;;;;;10.60;3.37;;;;;;;6.35;89.36;101862.20;3774121;77;97566;-84
2022/05/09 04:43:59;;;;;;;9.40;3.70;;;;;;;6.44;88.88;101856.77;3721785;78;98975;-82
2022/05/09 04:49:00;;;;;;;12.35;3.75;;;;;;;6.56;88.58;101874.21;3718160;79;98523;-84
2022/05/09 04:54:01;;;;;;;8.50;3.80;;;;;;;6.70;87.83;101872.73;3676125;79;98766;-83
2022/05/09 04:59:02;;;;;;;7.77;3.13;;;;;;;6.80;87.39;101871.88;3765581;77;98242;-85
2022/05/09 05:04:05;;;;;;;9.47;3.13;;;;;;;6.94;86.88;101875.88;3749468;77;98432;-84
2022/05/09 05:09:07;;;;;;;10.63;3.08;;;;;;;7.04;86.93;101878.32;3759348;77;98894;-85
2022/05/09 05:14:08;;;;;;;8.37;3.17;;;;;;;7.17;86.14;101882.30;3681579;79;98613;-84
2022/05/09 05:19:09;;;;;;;10.57;3.03;;;;;;;7.34;85.38;101876.84;3696936;78;98842;-84
2022/05/09 05:24:10;;;;;;;10.13;3.23;;;;;;;7.55;85.13;101884.69;3693743;78;98742;-83
2022/05/09 05:29:11;;;;;;;7.33;2.63;;;;;;;7.84;84.42;101889.51;3697167;79;98886;-83
2022/05/09 05:34:12;;;;;;;11.33;3.07;;;;;;;8.23;83.96;101892.89;3688041;78;98316;-85
2022/05/09 05:39:16;;;;;;;10.57;2.83;;;;;;;8.75;81.46;101890.80;3695942;78;99075;-81
2022/05/09 05:44:17;;;;;;;8.93;2.80;;;;;;;9.36;82.14;101896.45;3690856;78;99136;-84
2022/05/09 05:49:18;;;;;;;7.90;3.27;;;;;;;10.11;78.21;101900.33;3693578;78;98955;-86
2022/05/09 05:54:18;;;;;;;8.30;2.87;;;;;;;10.77;77.58;101905.19;3705275;78;98564;-85
2022/05/09 05:59:20;;;;;;;6.60;2.37;;;;;;;11.36;76.05;101899.45;3703642;78;99058;-86
2022/05/09 06:04:22;;;;;;;7.40;2.97;;;;;;;12.05;73.04;101907.68;3694009;78;99532;-84
2022/05/09 06:09:23;;;;;;;7.33;2.60;;;;;;;12.83;72.30;101903.69;3658437;78;98839;-84
2022/05/09 06:14:25;;;;;;;5.73;1.93;;;;;;;13.35;70.87;101902.23;3705296;78;99131;-82
2022/05/09 06:19:26;;;;;;;7.58;2.62;;;;;;;13.74;65.54;101912.81;3655327;79;98883;-84
2022/05/09 06:24:30;;;;;;;6.00;2.62;;;;;;;13.81;67.16;101915.15;3644783;79;98471;-84
2022/05/09 06:29:31;;;;;;;11.40;3.05;;;;;;;14.33;65.08;101905.76;3715286;78;98575;-82
2022/05/09 06:34:34;;;;;;;8.08;3.05;;;;;;;14.83;64.67;101912.42;3649077;79;98898;-84
2022/05/09 06:39:36;;;;;;;8.18;2.75;;;;;;;15.29;62.92;101913.18;3663413;79;99153;-82
2022/05/09 06:44:37;;;;;;;7.42;3.58;;;;;;;15.48;61.27;101912.52;3703078;79;99140;-85
2022/05/09 06:49:38;;;;;;;7.17;2.75;;;;;;;15.68;60.91;101909.03;3732496;78;98048;-84
2022/05/09 06:54:39;;;;;;;8.65;2.95;;;;;;;15.70;57.81;101921.36;3645740;80;98401;-86
2022/05/09 06:59:44;;;;;;;6.85;2.70;;;;;;;15.54;56.91;101931.05;3753593;76;98704;-85
2022/05/09 07:04:47;;;;;;;10.53;2.95;;;;;;;15.61;57.80;101928.36;3769866;77;98713;-85
2022/05/09 07:09:49;;;;;;;8.60;2.98;;;;;;;15.71;57.64;101918.82;3721506;78;98956;-85
2022/05/09 07:14:50;;;;;;;5.58;2.75;;;;;;;15.35;56.58;101926.40;3709298;79;98834;-85
2022/05/09 07:19:51;;;;;;;8.95;3.17;;;;;;;15.30;57.55;101923.09;3662407;79;99074;-85
2022/05/09 07:24:52;;;;;;;8.43;3.02;;;;;;;15.50;57.12;101921.28;3688087;79;98843;-84
2022/05/09 07:29:53;;;;;;;8.58;3.47;;;;;;;15.45;56.36;101926.34;3781787;76;98797;-85
2022/05/09 07:34:54;;;;;;;6.37;2.33;;;;;;;15.28;55.16;101925.45;3751110;77;98550;-87
2022/05/09 07:39:55;;;;;;;8.53;3.55;;;;;;;15.37;56.26;101926.81;3778150;77;97949;-85
2022/05/09 07:44:57;;;;;;;7.83;3.37;;;;;;;15.26;55.44;101928.59;3674948;78;98872;-85
2022/05/09 07:49:58;;;;;;;8.45;2.60;;;;;;;15.27;56.28;101930.80;3736846;78;98864;-87
2022/05/09 07:54:59;;;;;;;9.35;3.42;;;;;;;15.43;54.54;101936.42;3739898;78;98794;-84
2022/05/09 08:00:01;;;;;;;8.18;3.17;;;;;;;15.55;54.30;101934.03;3752753;77;30057;-85
2022/05/09 08:05:04;;;;;;;9.43;3.12;;;;;;;15.70;54.19;101935.84;3697230;78;98763;-87
2022/05/09 08:10:09;;;;;;;7.67;3.12;;;;;;;15.92;55.86;101935.73;3753283;78;98747;-84
2022/05/09 08:15:14;;;;;;;7.97;3.47;;;;;;;16.42;56.29;101935.22;3727164;77;98799;-86
2022/05/09 08:20:16;;;;;;;10.20;3.50;;;;;;;16.89;54.14;101933.91;3749876;78;97951;-83
2022/05/09 08:25:17;;;;;;;5.87;2.95;;;;;;;17.50;53.30;101934.64;3745348;77;99556;-83
2022/05/09 08:30:19;;;;;;;8.88;3.65;;;;;;;18.19;52.46;101935.60;3733441;77;35688;-87
2022/05/09 08:35:20;;;;;;;7.33;3.10;;;;;;;18.43;50.28;101934.91;3745657;77;98673;-82
2022/05/09 08:40:35;;;;;;;9.33;3.50;;;;;;;19.09;48.56;101942.63;3752044;78;98984;-84
2022/05/09 08:45:41;;;;;;;5.40;2.77;;;;;;;19.75;45.96;101943.17;3774804;76;98877;-83
2022/05/09 08:50:55;;;;;;;;;;;;;;;20.54;47.89;101943.27;3772132;77;98951;-84
2022/05/09 08:55:59;;;;;;;5.65;2.45;;;;;;;21.32;45.26;101932.34;3781525;78;85507;-85
2022/05/09 09:01:03;;;;;;;10.38;2.83;;;;;;;21.79;45.37;101927.30;3778117;76;98892;-84
2022/05/09 09:06:16;;;;;;;7.58;2.40;;;;;;;22.48;43.09;101927.05;3768862;78;25801;-83
2022/05/09 09:11:41;;;;;;;6.67;2.55;;;;;;;23.51;42.81;101929.22;3763796;76;99000;-84
2022/05/09 09:17:11;;;;;;;8.13;2.62;;;;;;;24.59;42.19;101936.09;3773526;76;98917;-85
2022/05/09 09:22:39;;;;;;;4.92;2.15;;;;;;;24.37;38.30;101932.13;3771094;77;98896;-82
2022/05/09 09:27:48;;;;;;;7.33;1.90;;;;;;;24.87;39.02;101937.44;3773942;76;98787;-85
2022/05/09 09:32:55;;;;;;;8.70;2.37;;;;;;;25.42;37.68;101921.78;3788987;77;98836;-85
2022/05/09 09:38:17;;;;;;;6.08;2.12;;;;;;;26.11;36.59;101916.22;3786552;76;99242;-83
2022/05/09 09:43:18;;;;;;;8.33;1.70;;;;;;;25.97;34.81;101908.19;3772493;77;98907;-84
2022/05/09 09:48:23;;;;;;;5.78;1.98;;;;;;;26.39;35.07;101916.81;3745611;77;26504;-86
2022/05/09 09:53:53;;;;;;;7.30;2.33;;;;;;;26.45;31.49;101914.20;3723795;78;99055;-86
2022/05/09 09:59:15;;;;;;;5.50;1.90;;;;;;;26.40;31.53;101908.50;3754231;77;99023;-85
2022/05/09 10:04:28;;;;;;;7.00;2.10;;;;;;;26.98;31.85;101911.92;3738415;77;98807;-85
2022/05/09 10:09:46;;;;;;;8.15;2.33;;;;;;;26.76;32.13;101908.21;3756507;78;98847;-86
2022/05/09 10:14:48;;;;;;;5.53;1.98;;;;;;;27.35;31.65;101903.38;3743301;78;98739;-82
2022/05/09 10:19:51;;;;;;;6.28;1.98;;;;;;;27.21;30.13;101902.48;3754527;77;98789;-84
2022/05/09 10:24:52;;;;;;;5.08;1.75;;;;;;;27.10;30.76;101899.19;3745913;78;99294;-85
2022/05/09 10:30:29;;;;;;;4.03;1.67;;;;;;;27.54;29.18;101883.94;3749296;77;98823;-84
2022/05/09 10:35:35;;;;;;;4.45;1.45;;;;;;;28.19;29.84;101896.08;3732246;78;98405;-81
2022/05/09 10:40:50;;;;;;;5.17;2.33;;;;;;;28.02;27.84;101889.05;3741196;78;98885;-83
2022/05/09 10:45:53;;;;;;;6.50;1.60;;;;;;;27.82;27.74;101884.34;3749307;77;98769;-83
2022/05/09 10:51:18;;;;;;;2.95;1.25;;;;;;;27.58;28.03;101879.56;3751563;77;99187;-86
2022/05/09 10:56:43;;;;;;;3.92;1.60;;;;;;;27.68;28.86;101879.16;3767580;77;98721;-84
2022/05/09 11:01:54;;;;;;;4.40;1.77;;;;;;;28.39;26.90;101864.59;3763293;77;98734;-83
2022/05/09 11:07:18;;;;;;;6.17;1.87;;;;;;;27.78;26.12;101866.70;3770751;77;25867;-82
2022/05/09 11:12:49;;;;;;;8.73;2.08;;;;;;;27.76;26.64;101849.98;3760109;77;98787;-82
2022/05/09 11:18:26;;;;;;;2.90;1.70;;;;;;;27.51;26.79;101849.48;3762893;77;98935;-83
2022/05/09 11:23:53;;;;;;;3.40;1.60;;;;;;;27.13;25.82;101838.13;3710875;78;98933;-82
2022/05/09 11:29:25;;;;;;;9.33;1.77;;;;;;;26.58;27.30;101828.27;3641333;80;98979;-85
2022/05/09 11:35:07;;;;;;;6.25;1.87;;;;;;;27.38;27.84;101833.20;3678011;78;98739;-85
2022/05/09 11:40:37;;;;;;;3.40;1.57;;;;;;;27.50;26.90;101818.82;3706044;78;98780;-86
2022/05/09 11:46:00;;;;;;;4.42;1.80;;;;;;;27.80;26.46;101809.65;3693348;79;99262;-83
2022/05/09 11:51:22;;;;;;;2.72;1.50;;;;;;;27.33;26.24;101794.20;3637622;80;99163;-84
2022/05/09 11:56:24;;;;;;;7.20;2.00;;;;;;;27.40;26.75;101801.64;3703840;78;99235;-88
2022/05/09 12:02:07;;;;;;;6.55;1.55;;;;;;;27.89;27.25;101799.16;3694596;78;99073;-84
2022/05/09 12:07:41;;;;;;;5.78;1.77;;;;;;;28.02;25.07;101793.42;3701717;78;26516;-85
2022/05/09 12:12:49;;;;;;;3.98;1.60;;;;;;;27.04;25.90;101793.61;3697438;79;98830;-84
2022/05/09 12:18:05;;;;;;;5.42;1.50;;;;;;;27.30;25.61;101797.93;3705454;78;99080;-86
2022/05/09 12:23:10;;;;;;;4.75;1.87;;;;;;;26.51;25.41;101790.97;3695884;78;98792;-88
2022/05/09 12:28:25;;;;;;;8.05;1.85;;;;;;;25.93;25.92;101791.03;3650245;79;98794;-85
2022/05/09 12:33:41;;;;;;;4.40;1.72;;;;;;;26.42;26.12;101776.77;3698177;79;98823;-84
2022/05/09 12:38:46;;;;;;;7.78;3.40;;;;;;;26.27;26.91;101777.82;3703078;79;98860;-84
2022/05/09 12:43:55;;;;;;;5.42;2.12;;;;;;;26.76;27.84;101765.55;3691592;78;98561;-84
2022/05/09 12:48:59;;;;;;;3.72;1.32;;;;;;;26.87;27.15;101761.73;3712972;78;98826;-85
2022/05/09 12:54:08;;;;;;;4.03;1.75;;;;;;;26.63;26.89;101750.03;3700288;78;98822;-84
2022/05/09 12:59:11;;;;;;;7.67;1.77;;;;;;;25.81;25.47;101750.85;3723747;78;99231;-88
2022/05/09 13:04:29;;;;;;;5.35;2.00;;;;;;;25.53;26.70;101739.82;3710335;78;99358;-84
2022/05/09 13:09:52;;;;;;;4.40;1.47;;;;;;;26.06;27.66;101734.78;3696837;78;99324;-85
2022/05/09 13:15:02;;;;;;;5.95;1.65;;;;;;;26.36;25.63;101720.67;3687507;78;98866;-85
2022/05/09 13:20:16;;;;;;;6.87;1.40;;;;;;;25.95;25.87;101728.69;3737728;78;99384;-85
2022/05/09 13:25:28;;;;;;;5.28;1.40;;;;;;;24.88;25.42;101735.61;3748984;77;98587;-87
2022/05/09 13:30:38;;;;;;;15.18;2.15;;;;;;;24.88;27.49;101721.53;3748969;78;98592;-88
2022/05/09 13:35:39;;;;;;;6.83;1.67;;;;;;;24.84;25.81;101718.65;3746845;78;98825;-87
2022/05/09 13:40:40;;;;;;;5.25;1.40;;;;;;;24.89;27.09;101713.86;3722844;77;98801;-86
2022/05/09 13:45:42;;;;;;;3.42;1.55;;;;;;;25.24;27.68;101704.42;3754666;77;98843;-87
2022/05/09 13:50:44;;;;;;;5.10;2.03;;;;;;;25.23;25.28;101698.62;3756660;78;99143;-87
2022/05/09 13:55:46;;;;;;;3.85;1.62;;;;;;;24.85;25.97;101694.87;3775896;77;25836;-85
2022/05/09 14:00:50;;;;;;;3.30;1.23;;;;;;;24.59;26.12;101686.93;3759657;77;98999;-84
2022/05/09 14:05:55;;;;;;;3.13;1.40;;;;;;;24.73;29.77;101677.31;3761123;77;98939;-84
2022/05/09 14:11:07;;;;;;;6.35;1.57;;;;;;;24.47;27.82;101674.16;3766331;77;99094;-84
2022/05/09 14:16:36;;;;;;;4.87;1.70;;;;;;;24.54;27.45;101662.09;3749549;78;99139;-84
2022/05/09 14:21:42;;;;;;;4.50;1.92;;;;;;;24.42;26.93;101662.02;3755382;78;98760;-87
2022/05/09 14:32:09;;;;;;;2.67;1.35;;;;;;;23.77;28.23;101653.38;3708230;79;99248;-86
2022/05/09 14:37:37;;;;;;;4.30;2.12;;;;;;;24.31;28.74;101646.80;3706583;79;26394;-86
2022/05/09 14:43:00;;;;;;;4.62;1.27;;;;;;;24.37;27.90;101639.44;3694010;79;99076;-87
2022/05/09 14:48:21;;;;;;;3.08;1.40;;;;;;;23.40;26.23;101634.16;3703927;78;99010;-86
2022/05/09 14:53:35;;;;;;;3.17;1.37;;;;;;;23.37;27.53;101626.62;3678082;78;98906;-88
2022/05/09 14:58:47;;;;;;;2.52;1.25;;;;;;;23.16;28.15;101628.45;3699692;78;98781;-86
2022/05/09 15:03:51;;;;;;;3.42;1.50;;;;;;;23.28;28.61;101621.56;3653602;79;98943;-88
2022/05/09 15:08:53;;;;;;;12.03;2.25;;;;;;;23.09;28.54;101618.75;3703501;79;98792;-87
2022/05/09 15:13:56;;;;;;;3.20;1.30;;;;;;;23.12;29.38;101610.88;3700420;78;98530;-86
2022/05/09 15:18:58;;;;;;;2.52;1.30;;;;;;;22.65;27.46;101613.65;3702728;78;98814;-88
2022/05/09 15:23:59;;;;;;;4.05;1.57;;;;;;;22.17;27.78;101611.31;3698189;78;98850;-86
2022/05/09 15:29:02;;;;;;;6.78;1.22;;;;;;;21.94;29.00;101609.11;3705902;79;99335;-86
2022/05/09 15:34:04;;;;;;;13.08;2.15;;;;;;;21.81;28.67;101608.14;3646307;79;99216;-88
2022/05/09 15:39:05;;;;;;;4.53;1.37;;;;;;;21.57;29.26;101596.06;3705438;78;99318;-87
2022/05/09 15:44:14;;;;;;;5.12;1.60;;;;;;;21.71;30.29;101600.69;3702708;79;99177;-88
2022/05/09 15:49:23;;;;;;;4.45;1.55;;;;;;;21.83;30.37;101593.08;3707055;78;25777;-88
2022/05/09 15:54:24;;;;;;;6.00;1.47;;;;;;;21.77;29.75;101592.78;3643043;79;99663;-83
2022/05/09 15:59:29;;;;;;;4.90;1.20;;;;;;;21.26;28.41;101582.54;3634688;79;98609;-86
2022/05/09 16:04:31;;;;;;;7.00;1.65;;;;;;;20.89;29.36;101584.03;3611757;80;99074;-85
2022/05/09 16:14:52;;;;;;;2.85;1.40;;;;;;;20.25;30.41;101581.73;3679708;78;99295;-90
2022/05/09 16:19:59;;;;;;;3.87;1.22;;;;;;;19.90;29.55;101584.23;3697046;79;26721;-85
2022/05/09 16:25:03;;;;;;;10.28;1.77;;;;;;;19.75;29.00;101586.16;3693744;79;98916;-88
2022/05/09 16:30:10;;;;;;;7.22;1.37;;;;;;;19.55;29.71;101579.52;3695307;79;99195;-90
2022/05/09 16:35:12;;;;;;;5.83;1.62;;;;;;;19.47;30.59;101572.42;3673979;78;98787;-89
2022/05/09 16:40:14;;;;;;;3.65;1.35;;;;;;;19.24;30.18;101578.53;3637079;80;98878;-87
2022/05/09 16:45:20;;;;;;;3.72;1.35;;;;;;;19.01;30.10;101571.27;3656580;78;99104;-88
2022/05/09 16:50:27;;;;;;;2.40;1.30;;;;;;;18.83;30.13;101571.95;3779834;78;98837;-86
2022/05/09 16:55:28;;;;;;;5.45;1.52;;;;;;;18.76;30.99;101572.59;3757527;76;98470;-88
2022/05/09 17:00:29;;;;;;;4.47;1.72;;;;;;;18.66;31.33;101577.02;3781972;76;99360;-88
2022/05/09 17:05:32;;;;;;;4.62;1.30;;;;;;;18.50;31.16;101567.50;3770665;76;99056;-89
2022/05/09 17:10:34;;;;;;;12.13;2.42;;;;;;;18.37;31.71;101567.12;3768587;77;99205;-90
2022/05/09 17:15:37;;;;;;;14.73;1.72;;;;;;;18.29;32.04;101569.72;3779186;77;98992;-86
2022/05/09 17:20:41;;;;;;;5.30;1.60;;;;;;;18.23;32.37;101569.94;3755869;77;99199;-92
2022/05/09 17:25:52;;;;;;;6.33;1.40;;;;;;;18.02;32.31;101575.53;3783590;76;34744;-89
2022/05/09 17:30:54;;;;;;;4.33;1.37;;;;;;;17.87;32.32;101564.81;3773826;76;98702;-87
2022/05/09 17:41:24;;;;;;;5.10;1.30;;;;;;;17.52;32.13;101562.00;3747774;77;99146;-88
2022/05/09 17:46:32;;;;;;;5.78;1.30;;;;;;;17.37;32.58;101563.95;3772742;78;98042;-88
2022/05/09 17:51:33;;;;;;;6.62;1.50;;;;;;;17.23;32.82;101565.30;3722724;78;98784;-89
2022/05/09 17:56:34;;;;;;;5.80;1.30;;;;;;;17.04;32.95;101567.64;3758963;77;98855;-88
2022/05/09 18:01:40;;;;;;;3.75;1.30;;;;;;;16.91;33.63;101576.16;3748995;78;99111;-89
2022/05/09 18:06:41;;;;;;;2.70;1.20;;;;;;;16.75;33.88;101572.33;3757676;78;98656;-88
2022/05/09 18:11:51;;;;;;;6.53;1.45;;;;;;;16.61;33.86;101565.89;3752097;77;98737;-85
2022/05/09 18:17:03;;;;;;;7.08;1.62;;;;;;;16.42;34.08;101562.84;3706834;77;99184;-85
2022/05/09 18:22:06;;;;;;;6.33;1.47;;;;;;;16.23;34.49;101565.86;3736498;77;99198;-85
2022/05/09 18:27:08;;;;;;;4.75;1.75;;;;;;;16.03;34.72;101567.91;3742315;78;98916;-88
2022/05/09 18:32:09;;;;;;;4.92;1.35;;;;;;;15.85;34.94;101565.00;3750534;77;99331;-85
2022/05/09 18:37:15;;;;;;;4.75;1.80;;;;;;;15.70;35.29;101570.83;3764900;77;34769;-85
2022/05/09 18:42:20;;;;;;;4.25;1.55;;;;;;;15.54;35.49;101575.84;3756118;77;98742;-88
2022/05/09 18:47:21;;;;;;;9.65;2.33;;;;;;;15.37;35.74;101582.80;3755301;77;98894;-88
2022/05/09 18:52:35;;;;;;;4.17;1.47;;;;;;;15.21;35.87;101575.28;3752296;78;98888;-86
2022/05/09 18:57:38;;;;;;;5.80;1.82;;;;;;;15.10;36.23;101574.36;3756454;78;98762;-88
2022/05/09 19:02:41;;;;;;;5.28;1.70;;;;;;;14.94;36.26;101573.78;3743522;78;99381;-88
2022/05/09 19:07:47;;;;;;;7.10;1.70;;;;;;;14.80;36.48;101581.95;3746221;78;34786;-87
2022/05/09 19:12:50;;;;;;;5.92;1.50;;;;;;;14.69;36.69;101589.33;3743314;78;98995;-88
2022/05/09 19:17:51;;;;;;;7.33;2.08;;;;;;;14.55;36.97;101580.05;3748289;78;98971;-88
2022/05/09 19:22:52;;;;;;;4.53;1.57;;;;;;;14.43;37.18;101585.22;3729783;78;98908;-86
2022/05/09 19:27:53;;;;;;;6.20;1.47;;;;;;;14.36;37.39;101587.90;3761223;77;99149;-87
2022/05/09 19:32:55;;;;;;;5.00;1.70;;;;;;;14.25;37.71;101589.72;3752443;78;98886;-87
2022/05/09 19:37:57;;;;;;;5.22;1.57;;;;;;;14.16;37.96;101586.95;3762393;78;32931;-88
2022/05/09 19:43:07;;;;;;;6.25;1.65;;;;;;;14.08;38.29;101589.41;3753211;78;98926;-86
2022/05/09 19:48:11;;;;;;;5.08;1.80;;;;;;;13.97;38.35;101585.68;3755783;77;99074;-87
2022/05/09 19:58:32;;;;;;;5.75;1.98;;;;;;;13.81;38.69;101593.33;3756951;77;98702;-89
2022/05/09 20:03:34;;;;;;;6.17;1.60;;;;;;;13.71;38.62;101587.84;3753772;77;99154;-87
2022/05/09 20:08:40;;;;;;;3.72;1.50;;;;;;;13.66;38.66;101597.02;3727813;78;98104;-88
2022/05/09 20:13:44;;;;;;;5.35;1.80;;;;;;;13.61;38.83;101587.64;3704696;77;98930;-88
2022/05/09 20:18:47;;;;;;;5.13;1.50;;;;;;;13.54;38.90;101596.64;3724792;78;98683;-88
2022/05/09 20:23:53;;;;;;;6.75;1.80;;;;;;;13.47;39.12;101596.48;3745854;77;99032;-88
2022/05/09 20:34:13;;;;;;;5.45;2.05;;;;;;;13.32;39.12;101601.57;3739194;78;98519;-89
2022/05/09 20:39:18;;;;;;;4.53;1.70;;;;;;;13.24;39.24;101597.66;3748008;78;98771;-90
2022/05/09 20:44:19;;;;;;;6.78;2.12;;;;;;;13.15;39.43;101595.70;3747147;77;98763;-88
2022/05/09 20:49:21;;;;;;;5.45;2.00;;;;;;;13.10;39.41;101595.99;3775128;77;35396;-88
2022/05/09 20:54:24;;;;;;;7.27;2.80;;;;;;;13.03;39.54;101601.39;3765406;77;99053;-89
2022/05/09 20:59:26;;;;;;;6.15;2.35;;;;;;;12.98;39.69;101603.06;3784848;76;98669;-88
2022/05/09 21:04:27;;;;;;;6.12;2.20;;;;;;;12.88;39.87;101606.37;3780086;77;98893;-88
2022/05/09 21:09:29;;;;;;;7.83;2.10;;;;;;;12.79;40.19;101614.88;3778280;77;98997;-88
2022/05/09 21:14:31;;;;;;;7.78;2.85;;;;;;;12.72;40.29;101610.60;3771876;76;99245;-89
2022/05/09 21:19:32;;;;;;;8.80;2.10;;;;;;;12.67;40.62;101609.51;3760721;78;34884;-87
2022/05/09 21:24:35;;;;;;;8.07;2.20;;;;;;;12.61;41.02;101615.09;3760046;77;99027;-88
2022/05/09 21:29:37;;;;;;;4.92;2.22;;;;;;;12.53;41.31;101609.19;3778904;76;98685;-88
2022/05/09 21:34:39;;;;;;;7.83;2.08;;;;;;;12.48;41.87;101610.06;3773102;77;98803;-88
2022/05/09 21:45:09;;;;;;;6.12;2.65;;;;;;;12.31;42.63;101607.11;3775075;76;99207;-87
2022/05/09 21:50:12;;;;;;;8.55;2.92;;;;;;;12.21;43.15;101605.50;3754367;77;98820;-87
2022/05/09 21:55:17;;;;;;;9.67;2.90;;;;;;;12.11;43.61;101606.83;3725928;78;98754;-90
2022/05/09 22:00:27;;;;;;;7.92;2.80;;;;;;;12.02;44.61;101613.14;3765054;77;98303;-88
2022/05/09 22:05:29;;;;;;;7.85;2.75;;;;;;;11.96;44.41;101607.67;3725654;78;98941;-86
2022/05/09 22:10:30;;;;;;;8.53;3.12;;;;;;;11.79;44.79;101589.30;3766512;78;98828;-87
2022/05/09 22:15:32;;;;;;;9.97;3.57;;;;;;;11.66;45.33;101583.67;3751161;77;98775;-87
2022/05/09 22:20:39;;;;;;;14.40;3.40;;;;;;;11.70;45.85;101605.23;3751084;78;98845;-86
2022/05/09 22:25:48;;;;;;;9.73;3.52;;;;;;;11.62;46.07;101599.33;3741930;78;34789;-89
2022/05/09 22:30:50;;;;;;;8.00;2.85;;;;;;;11.40;46.89;101582.77;3709037;78;99357;-86
2022/05/09 22:35:57;;;;;;;10.32;4.12;;;;;;;11.40;46.89;101582.77;3704321;78;98596;-87
2022/05/09 22:41:08;;;;;;;9.05;3.22;;;;;;;11.41;47.17;101586.33;3758201;77;99334;-86
2022/05/09 22:46:20;;;;;;;9.43;3.33;;;;;;;11.32;47.29;101584.31;3717162;78;98038;-88
2022/05/09 22:51:25;;;;;;;8.23;3.60;;;;;;;11.12;48.45;101573.75;3605403;78;98751;-87
2022/05/09 22:57:08;;;;;;;9.30;3.77;;;;;;;11.03;48.49;101568.19;3754426;76;34905;-87
2022/05/09 23:02:45;;;;;;;14.43;4.97;;;;;;;11.03;48.49;101568.19;3755255;78;98899;-87
2022/05/09 23:07:56;;;;;;;9.88;4.53;;;;;;;10.83;49.21;101549.34;3741965;78;98862;-87
2022/05/09 23:12:57;;;;;;;10.58;4.30;;;;;;;10.78;49.75;101549.59;3726655;76;99044;-88
2022/05/09 23:18:00;;;;;;;9.05;4.35;;;;;;;10.49;50.42;101535.37;3769353;77;99107;-87
2022/05/09 23:23:10;;;;;;;11.35;4.87;;;;;;;10.49;50.42;101535.37;3737181;78;99167;-86
2022/05/09 23:33:37;;;;;;;13.13;4.70;;;;;;;10.42;51.52;101546.19;3591811;78;100483;-87
2022/05/09 23:38:47;;;;;;;13.18;4.85;;;;;;;10.30;51.70;101536.00;3764205;76;99254;-87
2022/05/09 23:43:53;;;;;;;13.90;5.75;;;;;;;10.20;52.32;101533.73;3715252;78;98896;-86
2022/05/09 23:48:58;;;;;;;12.60;4.90;;;;;;;10.13;52.53;101528.59;3749069;78;99177;-86
2022/05/09 23:53:59;;;;;;;11.73;4.40;;;;;;;10.07;53.14;101525.84;3783642;76;98347;-86
2022/05/09 23:59:00;;;;;;;9.98;4.62;;;;;;;9.99;53.15;101525.39;3792021;78;98059;-86
